sensor_id;sensor_type;location;lat;lon;timestamp;P1;durP1;ratioP1;P2;durP2;ratioP2
9342;SDS011;4710;51.382;7.244;2022-07-29T00:02:14;1.90;;;1.73;;
9342;SDS011;4710;51.382;7.244;2022-07-29T00:04:52;3.28;;;1.62;;
9342;SDS011;4710;51.382;7.244;2022-07-29T00:07:30;3.15;;;1.58;;
9342;SDS011;4710;51.382;7.244;2022-07-29T00:10:07;2.20;;;1.60;;
9342;SDS011;4710;51.382;7.244;2022-07-29T00:12:52;4.20;;;1.77;;
9342;SDS011;4710;51.382;7.244;2022-07-29T00:15:36;3.05;;;1.70;;
9342;SDS011;4710;51.382;7.244;2022-07-29T00:18:21;3.28;;;1.70;;
9342;SDS011;4710;51.382;7.244;2022-07-29T00:21:08;3.50;;;1.65;;
9342;SDS011;4710;51.382;7.244;2022-07-29T00:23:52;4.40;;;2.12;;
9342;SDS011;4710;51.382;7.244;2022-07-29T00:26:29;2.70;;;1.50;;
9342;SDS011;4710;51.382;7.244;2022-07-29T00:29:12;3.90;;;1.80;;
9342;SDS011;4710;51.382;7.244;2022-07-29T00:31:51;3.12;;;1.62;;
9342;SDS011;4710;51.382;7.244;2022-07-29T00:34:29;4.18;;;1.75;;
9342;SDS011;4710;51.382;7.244;2022-07-29T00:37:11;3.92;;;1.70;;
9342;SDS011;4710;51.382;7.244;2022-07-29T00:39:49;4.07;;;1.77;;
9342;SDS011;4710;51.382;7.244;2022-07-29T00:42:26;2.03;;;1.70;;
9342;SDS011;4710;51.382;7.244;2022-07-29T00:45:07;1.98;;;1.62;;
9342;SDS011;4710;51.382;7.244;2022-07-29T00:47:44;2.72;;;1.70;;
9342;SDS011;4710;51.382;7.244;2022-07-29T00:50:24;2.50;;;1.70;;
9342;SDS011;4710;51.382;7.244;2022-07-29T00:53:05;1.80;;;1.62;;
9342;SDS011;4710;51.382;7.244;2022-07-29T00:55:49;2.30;;;1.80;;
9342;SDS011;4710;51.382;7.244;2022-07-29T00:58:26;2.05;;;1.60;;
9342;SDS011;4710;51.382;7.244;2022-07-29T01:01:07;4.05;;;1.80;;
9342;SDS011;4710;51.382;7.244;2022-07-29T01:03:44;6.05;;;2.00;;
9342;SDS011;4710;51.382;7.244;2022-07-29T01:06:30;2.17;;;1.77;;
9342;SDS011;4710;51.382;7.244;2022-07-29T01:09:10;4.80;;;1.80;;
9342;SDS011;4710;51.382;7.244;2022-07-29T01:11:47;2.97;;;1.60;;
9342;SDS011;4710;51.382;7.244;2022-07-29T01:14:28;4.12;;;1.85;;
9342;SDS011;4710;51.382;7.244;2022-07-29T01:17:08;2.72;;;1.83;;
9342;SDS011;4710;51.382;7.244;2022-07-29T01:23:20;4.15;;;1.80;;
9342;SDS011;4710;51.382;7.244;2022-07-29T01:29:16;4.12;;;2.00;;
9342;SDS011;4710;51.382;7.244;2022-07-29T01:31:59;2.10;;;1.60;;
9342;SDS011;4710;51.382;7.244;2022-07-29T01:34:47;6.22;;;1.87;;
9342;SDS011;4710;51.382;7.244;2022-07-29T01:37:35;3.58;;;1.83;;
9342;SDS011;4710;51.382;7.244;2022-07-29T01:40:19;5.57;;;1.87;;
9342;SDS011;4710;51.382;7.244;2022-07-29T01:43:03;2.87;;;1.70;;
9342;SDS011;4710;51.382;7.244;2022-07-29T01:45:45;4.35;;;1.87;;
9342;SDS011;4710;51.382;7.244;2022-07-29T01:48:43;6.35;;;1.70;;
9342;SDS011;4710;51.382;7.244;2022-07-29T01:51:29;3.60;;;1.90;;
9342;SDS011;4710;51.382;7.244;2022-07-29T01:54:13;2.72;;;1.60;;
9342;SDS011;4710;51.382;7.244;2022-07-29T01:56:53;2.60;;;1.70;;
9342;SDS011;4710;51.382;7.244;2022-07-29T01:59:33;5.53;;;1.83;;
9342;SDS011;4710;51.382;7.244;2022-07-29T02:02:15;6.80;;;1.80;;
9342;SDS011;4710;51.382;7.244;2022-07-29T02:04:54;3.20;;;1.73;;
9342;SDS011;4710;51.382;7.244;2022-07-29T02:07:38;1.75;;;1.65;;
9342;SDS011;4710;51.382;7.244;2022-07-29T02:10:22;4.50;;;1.80;;
9342;SDS011;4710;51.382;7.244;2022-07-29T02:13:02;1.65;;;1.55;;
9342;SDS011;4710;51.382;7.244;2022-07-29T02:15:39;4.18;;;1.90;;
9342;SDS011;4710;51.382;7.244;2022-07-29T02:18:20;2.42;;;1.42;;
9342;SDS011;4710;51.382;7.244;2022-07-29T02:21:09;1.83;;;1.60;;
9342;SDS011;4710;51.382;7.244;2022-07-29T02:23:50;2.67;;;1.62;;
9342;SDS011;4710;51.382;7.244;2022-07-29T02:26:30;2.25;;;1.48;;
9342;SDS011;4710;51.382;7.244;2022-07-29T02:29:11;3.35;;;1.77;;
9342;SDS011;4710;51.382;7.244;2022-07-29T02:31:51;2.03;;;1.70;;
9342;SDS011;4710;51.382;7.244;2022-07-29T02:34:32;2.12;;;1.70;;
9342;SDS011;4710;51.382;7.244;2022-07-29T02:37:12;3.53;;;1.70;;
9342;SDS011;4710;51.382;7.244;2022-07-29T02:39:54;3.03;;;1.60;;
9342;SDS011;4710;51.382;7.244;2022-07-29T02:42:41;2.22;;;1.58;;
9342;SDS011;4710;51.382;7.244;2022-07-29T02:45:26;2.17;;;1.80;;
9342;SDS011;4710;51.382;7.244;2022-07-29T02:48:09;3.62;;;1.65;;
9342;SDS011;4710;51.382;7.244;2022-07-29T02:50:49;2.87;;;1.77;;
9342;SDS011;4710;51.382;7.244;2022-07-29T02:53:35;3.10;;;1.50;;
9342;SDS011;4710;51.382;7.244;2022-07-29T02:56:16;3.03;;;1.55;;
9342;SDS011;4710;51.382;7.244;2022-07-29T02:58:57;3.78;;;1.60;;
9342;SDS011;4710;51.382;7.244;2022-07-29T03:01:38;5.15;;;1.70;;
9342;SDS011;4710;51.382;7.244;2022-07-29T03:04:24;3.33;;;2.10;;
9342;SDS011;4710;51.382;7.244;2022-07-29T03:07:06;1.83;;;1.55;;
9342;SDS011;4710;51.382;7.244;2022-07-29T03:09:47;4.20;;;1.70;;
9342;SDS011;4710;51.382;7.244;2022-07-29T03:12:30;2.90;;;1.60;;
9342;SDS011;4710;51.382;7.244;2022-07-29T03:15:11;5.95;;;1.83;;
9342;SDS011;4710;51.382;7.244;2022-07-29T03:17:51;4.18;;;1.80;;
9342;SDS011;4710;51.382;7.244;2022-07-29T03:20:32;2.12;;;1.67;;
9342;SDS011;4710;51.382;7.244;2022-07-29T03:23:09;4.70;;;1.80;;
9342;SDS011;4710;51.382;7.244;2022-07-29T03:25:46;3.72;;;1.67;;
9342;SDS011;4710;51.382;7.244;2022-07-29T03:28:30;2.40;;;1.70;;
9342;SDS011;4710;51.382;7.244;2022-07-29T03:31:07;3.85;;;1.70;;
9342;SDS011;4710;51.382;7.244;2022-07-29T03:33:44;4.18;;;1.77;;
9342;SDS011;4710;51.382;7.244;2022-07-29T03:36:25;3.62;;;1.87;;
9342;SDS011;4710;51.382;7.244;2022-07-29T03:39:02;4.32;;;1.98;;
9342;SDS011;4710;51.382;7.244;2022-07-29T03:41:39;5.68;;;1.83;;
9342;SDS011;4710;51.382;7.244;2022-07-29T03:44:23;3.62;;;1.85;;
9342;SDS011;4710;51.382;7.244;2022-07-29T03:47:03;3.67;;;1.77;;
9342;SDS011;4710;51.382;7.244;2022-07-29T03:49:44;4.18;;;1.80;;
9342;SDS011;4710;51.382;7.244;2022-07-29T03:52:31;4.37;;;1.80;;
9342;SDS011;4710;51.382;7.244;2022-07-29T03:55:15;2.72;;;1.77;;
9342;SDS011;4710;51.382;7.244;2022-07-29T03:57:55;2.00;;;1.80;;
9342;SDS011;4710;51.382;7.244;2022-07-29T04:00:36;4.10;;;1.80;;
9342;SDS011;4710;51.382;7.244;2022-07-29T04:03:20;2.15;;;1.80;;
9342;SDS011;4710;51.382;7.244;2022-07-29T04:06:00;4.80;;;2.10;;
9342;SDS011;4710;51.382;7.244;2022-07-29T04:08:41;2.33;;;1.80;;
9342;SDS011;4710;51.382;7.244;2022-07-29T04:11:18;2.45;;;1.92;;
9342;SDS011;4710;51.382;7.244;2022-07-29T04:13:56;4.62;;;1.90;;
9342;SDS011;4710;51.382;7.244;2022-07-29T04:16:39;3.35;;;2.20;;
9342;SDS011;4710;51.382;7.244;2022-07-29T04:19:23;3.85;;;1.80;;
9342;SDS011;4710;51.382;7.244;2022-07-29T04:22:00;6.53;;;1.95;;
9342;SDS011;4710;51.382;7.244;2022-07-29T04:24:40;4.20;;;2.05;;
9342;SDS011;4710;51.382;7.244;2022-07-29T04:27:21;3.80;;;2.00;;
9342;SDS011;4710;51.382;7.244;2022-07-29T04:29:59;3.75;;;2.10;;
9342;SDS011;4710;51.382;7.244;2022-07-29T04:32:36;7.05;;;2.03;;
9342;SDS011;4710;51.382;7.244;2022-07-29T04:35:13;4.65;;;2.20;;
9342;SDS011;4710;51.382;7.244;2022-07-29T04:37:50;4.28;;;2.00;;
9342;SDS011;4710;51.382;7.244;2022-07-29T04:40:35;1.85;;;1.75;;
9342;SDS011;4710;51.382;7.244;2022-07-29T04:43:26;4.35;;;1.95;;
9342;SDS011;4710;51.382;7.244;2022-07-29T04:46:09;4.07;;;2.08;;
9342;SDS011;4710;51.382;7.244;2022-07-29T04:48:52;3.65;;;1.80;;
9342;SDS011;4710;51.382;7.244;2022-07-29T04:51:32;2.78;;;1.90;;
9342;SDS011;4710;51.382;7.244;2022-07-29T04:54:10;2.12;;;1.92;;
9342;SDS011;4710;51.382;7.244;2022-07-29T04:56:53;3.25;;;1.92;;
9342;SDS011;4710;51.382;7.244;2022-07-29T05:01:46;2.63;;;1.80;;
9342;SDS011;4710;51.382;7.244;2022-07-29T05:04:23;4.00;;;2.10;;
9342;SDS011;4710;51.382;7.244;2022-07-29T05:07:00;3.45;;;1.90;;
9342;SDS011;4710;51.382;7.244;2022-07-29T05:09:37;2.80;;;2.00;;
9342;SDS011;4710;51.382;7.244;2022-07-29T05:12:15;4.28;;;2.00;;
9342;SDS011;4710;51.382;7.244;2022-07-29T05:14:55;2.05;;;1.85;;
9342;SDS011;4710;51.382;7.244;2022-07-29T05:17:33;5.00;;;2.40;;
9342;SDS011;4710;51.382;7.244;2022-07-29T05:20:10;4.00;;;2.20;;
9342;SDS011;4710;51.382;7.244;2022-07-29T05:22:55;2.95;;;1.92;;
9342;SDS011;4710;51.382;7.244;2022-07-29T05:25:34;2.42;;;1.98;;
9342;SDS011;4710;51.382;7.244;2022-07-29T05:28:21;3.45;;;1.85;;
9342;SDS011;4710;51.382;7.244;2022-07-29T05:30:58;4.35;;;2.15;;
9342;SDS011;4710;51.382;7.244;2022-07-29T05:33:35;4.05;;;1.87;;
9342;SDS011;4710;51.382;7.244;2022-07-29T05:36:12;2.20;;;1.90;;
9342;SDS011;4710;51.382;7.244;2022-07-29T05:38:50;15.70;;;2.30;;
9342;SDS011;4710;51.382;7.244;2022-07-29T05:41:31;3.58;;;1.58;;
9342;SDS011;4710;51.382;7.244;2022-07-29T05:44:12;3.60;;;1.60;;
9342;SDS011;4710;51.382;7.244;2022-07-29T05:47:06;3.05;;;1.90;;
9342;SDS011;4710;51.382;7.244;2022-07-29T05:49:45;6.10;;;1.95;;
9342;SDS011;4710;51.382;7.244;2022-07-29T05:52:23;4.20;;;1.80;;
9342;SDS011;4710;51.382;7.244;2022-07-29T05:55:03;4.85;;;1.75;;
9342;SDS011;4710;51.382;7.244;2022-07-29T05:57:41;3.33;;;1.87;;
9342;SDS011;4710;51.382;7.244;2022-07-29T06:00:22;3.58;;;1.83;;
9342;SDS011;4710;51.382;7.244;2022-07-29T06:02:59;4.28;;;2.03;;
9342;SDS011;4710;51.382;7.244;2022-07-29T06:05:40;2.78;;;1.90;;
9342;SDS011;4710;51.382;7.244;2022-07-29T06:08:20;2.85;;;2.08;;
9342;SDS011;4710;51.382;7.244;2022-07-29T06:10:57;2.60;;;1.87;;
9342;SDS011;4710;51.382;7.244;2022-07-29T06:13:35;3.10;;;1.90;;
9342;SDS011;4710;51.382;7.244;2022-07-29T06:16:21;4.07;;;2.03;;
9342;SDS011;4710;51.382;7.244;2022-07-29T06:19:00;4.00;;;1.98;;
9342;SDS011;4710;51.382;7.244;2022-07-29T06:21:43;2.67;;;2.08;;
9342;SDS011;4710;51.382;7.244;2022-07-29T06:24:25;2.28;;;2.05;;
9342;SDS011;4710;51.382;7.244;2022-07-29T06:27:10;3.30;;;2.10;;
9342;SDS011;4710;51.382;7.244;2022-07-29T06:29:50;4.50;;;2.30;;
9342;SDS011;4710;51.382;7.244;2022-07-29T06:32:27;3.80;;;2.20;;
9342;SDS011;4710;51.382;7.244;2022-07-29T06:35:08;3.10;;;2.20;;
9342;SDS011;4710;51.382;7.244;2022-07-29T06:37:45;2.30;;;2.10;;
9342;SDS011;4710;51.382;7.244;2022-07-29T06:40:23;3.50;;;2.00;;
9342;SDS011;4710;51.382;7.244;2022-07-29T06:43:08;2.53;;;2.17;;
9342;SDS011;4710;51.382;7.244;2022-07-29T06:45:49;7.82;;;2.40;;
9342;SDS011;4710;51.382;7.244;2022-07-29T06:48:26;2.60;;;2.20;;
9342;SDS011;4710;51.382;7.244;2022-07-29T06:51:07;4.18;;;2.20;;
9342;SDS011;4710;51.382;7.244;2022-07-29T06:53:47;3.65;;;2.33;;
9342;SDS011;4710;51.382;7.244;2022-07-29T06:56:24;3.10;;;2.35;;
9342;SDS011;4710;51.382;7.244;2022-07-29T06:59:02;4.93;;;2.35;;
9342;SDS011;4710;51.382;7.244;2022-07-29T07:01:43;4.75;;;2.20;;
9342;SDS011;4710;51.382;7.244;2022-07-29T07:04:23;15.30;;;2.62;;
9342;SDS011;4710;51.382;7.244;2022-07-29T07:07:04;4.60;;;2.20;;
9342;SDS011;4710;51.382;7.244;2022-07-29T07:09:44;3.95;;;2.45;;
9342;SDS011;4710;51.382;7.244;2022-07-29T07:12:24;4.55;;;2.12;;
9342;SDS011;4710;51.382;7.244;2022-07-29T07:15:02;7.70;;;2.60;;
9342;SDS011;4710;51.382;7.244;2022-07-29T07:17:39;14.13;;;2.97;;
9342;SDS011;4710;51.382;7.244;2022-07-29T07:20:20;6.60;;;2.30;;
9342;SDS011;4710;51.382;7.244;2022-07-29T07:23:00;4.75;;;2.25;;
9342;SDS011;4710;51.382;7.244;2022-07-29T07:25:41;6.35;;;2.25;;
9342;SDS011;4710;51.382;7.244;2022-07-29T07:28:21;2.58;;;2.10;;
9342;SDS011;4710;51.382;7.244;2022-07-29T07:30:59;3.67;;;2.03;;
9342;SDS011;4710;51.382;7.244;2022-07-29T07:33:41;3.28;;;2.10;;
9342;SDS011;4710;51.382;7.244;2022-07-29T07:36:20;3.17;;;2.35;;
9342;SDS011;4710;51.382;7.244;2022-07-29T07:39:01;4.22;;;2.08;;
9342;SDS011;4710;51.382;7.244;2022-07-29T07:41:42;3.17;;;2.12;;
9342;SDS011;4710;51.382;7.244;2022-07-29T07:44:22;2.33;;;2.00;;
9342;SDS011;4710;51.382;7.244;2022-07-29T07:47:03;2.28;;;2.08;;
9342;SDS011;4710;51.382;7.244;2022-07-29T07:49:43;2.72;;;2.45;;
9342;SDS011;4710;51.382;7.244;2022-07-29T07:52:26;4.10;;;2.15;;
9342;SDS011;4710;51.382;7.244;2022-07-29T07:55:10;2.72;;;2.22;;
9342;SDS011;4710;51.382;7.244;2022-07-29T07:57:50;2.28;;;2.08;;
9342;SDS011;4710;51.382;7.244;2022-07-29T08:00:27;2.33;;;2.12;;
9342;SDS011;4710;51.382;7.244;2022-07-29T08:03:05;3.17;;;2.15;;
9342;SDS011;4710;51.382;7.244;2022-07-29T08:05:46;4.03;;;2.40;;
9342;SDS011;4710;51.382;7.244;2022-07-29T08:08:26;4.40;;;2.30;;
9342;SDS011;4710;51.382;7.244;2022-07-29T08:11:07;3.58;;;2.37;;
9342;SDS011;4710;51.382;7.244;2022-07-29T08:13:44;3.42;;;2.28;;
9342;SDS011;4710;51.382;7.244;2022-07-29T08:16:25;3.45;;;2.20;;
9342;SDS011;4710;51.382;7.244;2022-07-29T08:19:02;3.78;;;2.25;;
9342;SDS011;4710;51.382;7.244;2022-07-29T08:21:39;2.45;;;2.20;;
9342;SDS011;4710;51.382;7.244;2022-07-29T08:24:20;3.00;;;1.95;;
9342;SDS011;4710;51.382;7.244;2022-07-29T08:27:10;3.17;;;2.12;;
9342;SDS011;4710;51.382;7.244;2022-07-29T08:29:47;4.30;;;2.20;;
9342;SDS011;4710;51.382;7.244;2022-07-29T08:32:25;2.85;;;2.20;;
9342;SDS011;4710;51.382;7.244;2022-07-29T08:35:05;6.00;;;2.25;;
9342;SDS011;4710;51.382;7.244;2022-07-29T08:37:44;4.10;;;2.15;;
9342;SDS011;4710;51.382;7.244;2022-07-29T08:40:24;3.83;;;2.33;;
9342;SDS011;4710;51.382;7.244;2022-07-29T08:43:05;4.30;;;2.03;;
9342;SDS011;4710;51.382;7.244;2022-07-29T08:45:47;2.70;;;2.10;;
9342;SDS011;4710;51.382;7.244;2022-07-29T08:48:26;3.15;;;1.95;;
9342;SDS011;4710;51.382;7.244;2022-07-29T08:51:03;2.03;;;1.90;;
9342;SDS011;4710;51.382;7.244;2022-07-29T08:53:45;2.60;;;2.10;;
9342;SDS011;4710;51.382;7.244;2022-07-29T08:56:25;4.25;;;2.20;;
9342;SDS011;4710;51.382;7.244;2022-07-29T08:59:08;3.53;;;2.40;;
9342;SDS011;4710;51.382;7.244;2022-07-29T09:01:55;2.15;;;1.95;;
9342;SDS011;4710;51.382;7.244;2022-07-29T09:04:39;4.32;;;2.45;;
9342;SDS011;4710;51.382;7.244;2022-07-29T09:07:18;3.92;;;2.35;;
9342;SDS011;4710;51.382;7.244;2022-07-29T09:09:56;3.30;;;2.30;;
9342;SDS011;4710;51.382;7.244;2022-07-29T09:12:40;3.90;;;2.20;;
9342;SDS011;4710;51.382;7.244;2022-07-29T09:15:23;5.50;;;2.15;;
9342;SDS011;4710;51.382;7.244;2022-07-29T09:18:08;3.42;;;2.28;;
9342;SDS011;4710;51.382;7.244;2022-07-29T09:20:50;2.83;;;2.20;;
9342;SDS011;4710;51.382;7.244;2022-07-29T09:23:28;7.05;;;2.58;;
9342;SDS011;4710;51.382;7.244;2022-07-29T09:26:05;3.85;;;2.20;;
9342;SDS011;4710;51.382;7.244;2022-07-29T09:28:48;2.62;;;2.15;;
9342;SDS011;4710;51.382;7.244;2022-07-29T09:31:32;4.50;;;2.25;;
9342;SDS011;4710;51.382;7.244;2022-07-29T09:34:22;4.05;;;2.28;;
9342;SDS011;4710;51.382;7.244;2022-07-29T09:40:11;3.80;;;2.25;;
9342;SDS011;4710;51.382;7.244;2022-07-29T09:42:49;4.25;;;2.50;;
9342;SDS011;4710;51.382;7.244;2022-07-29T09:45:31;2.95;;;2.42;;
9342;SDS011;4710;51.382;7.244;2022-07-29T09:48:13;4.32;;;2.22;;
9342;SDS011;4710;51.382;7.244;2022-07-29T09:50:54;4.75;;;2.10;;
9342;SDS011;4710;51.382;7.244;2022-07-29T09:53:33;4.78;;;2.10;;
9342;SDS011;4710;51.382;7.244;2022-07-29T09:56:10;3.55;;;2.30;;
9342;SDS011;4710;51.382;7.244;2022-07-29T09:59:04;4.60;;;2.30;;
9342;SDS011;4710;51.382;7.244;2022-07-29T10:01:54;4.70;;;2.10;;
9342;SDS011;4710;51.382;7.244;2022-07-29T10:04:36;2.85;;;2.10;;
9342;SDS011;4710;51.382;7.244;2022-07-29T10:07:19;3.53;;;2.30;;
9342;SDS011;4710;51.382;7.244;2022-07-29T10:09:56;3.30;;;2.30;;
9342;SDS011;4710;51.382;7.244;2022-07-29T10:15:30;6.62;;;2.62;;
9342;SDS011;4710;51.382;7.244;2022-07-29T10:18:13;7.00;;;2.62;;
9342;SDS011;4710;51.382;7.244;2022-07-29T10:20:50;9.98;;;2.75;;
9342;SDS011;4710;51.382;7.244;2022-07-29T10:23:34;4.25;;;2.30;;
9342;SDS011;4710;51.382;7.244;2022-07-29T10:26:19;5.85;;;2.67;;
9342;SDS011;4710;51.382;7.244;2022-07-29T10:29:00;5.22;;;2.50;;
9342;SDS011;4710;51.382;7.244;2022-07-29T10:31:44;8.70;;;2.50;;
9342;SDS011;4710;51.382;7.244;2022-07-29T10:34:30;8.10;;;2.80;;
9342;SDS011;4710;51.382;7.244;2022-07-29T10:37:14;7.28;;;2.90;;
9342;SDS011;4710;51.382;7.244;2022-07-29T10:43:21;5.43;;;2.55;;
9342;SDS011;4710;51.382;7.244;2022-07-29T10:46:02;5.00;;;2.62;;
9342;SDS011;4710;51.382;7.244;2022-07-29T10:54:42;6.18;;;2.60;;
9342;SDS011;4710;51.382;7.244;2022-07-29T10:57:26;4.68;;;2.72;;
9342;SDS011;4710;51.382;7.244;2022-07-29T11:03:05;5.10;;;2.72;;
9342;SDS011;4710;51.382;7.244;2022-07-29T11:08:30;7.07;;;3.08;;
9342;SDS011;4710;51.382;7.244;2022-07-29T11:14:14;5.22;;;2.90;;
9342;SDS011;4710;51.382;7.244;2022-07-29T11:16:58;5.07;;;2.80;;
9342;SDS011;4710;51.382;7.244;2022-07-29T11:19:42;4.70;;;2.60;;
9342;SDS011;4710;51.382;7.244;2022-07-29T11:25:15;6.03;;;3.50;;
9342;SDS011;4710;51.382;7.244;2022-07-29T11:28:07;3.65;;;2.75;;
9342;SDS011;4710;51.382;7.244;2022-07-29T11:33:28;8.35;;;3.17;;
9342;SDS011;4710;51.382;7.244;2022-07-29T11:36:10;18.58;;;4.00;;
9342;SDS011;4710;51.382;7.244;2022-07-29T11:38:50;10.60;;;3.20;;
9342;SDS011;4710;51.382;7.244;2022-07-29T11:41:37;5.75;;;3.10;;
9342;SDS011;4710;51.382;7.244;2022-07-29T11:46:59;9.90;;;3.10;;
9342;SDS011;4710;51.382;7.244;2022-07-29T11:49:46;6.12;;;3.22;;
9342;SDS011;4710;51.382;7.244;2022-07-29T11:52:34;5.12;;;3.28;;
9342;SDS011;4710;51.382;7.244;2022-07-29T11:55:15;4.40;;;3.28;;
9342;SDS011;4710;51.382;7.244;2022-07-29T11:57:56;4.53;;;3.37;;
9342;SDS011;4710;51.382;7.244;2022-07-29T12:00:38;9.07;;;3.08;;
9342;SDS011;4710;51.382;7.244;2022-07-29T12:03:25;5.70;;;3.12;;
9342;SDS011;4710;51.382;7.244;2022-07-29T12:06:15;6.95;;;3.25;;
9342;SDS011;4710;51.382;7.244;2022-07-29T12:08:52;4.45;;;3.00;;
9342;SDS011;4710;51.382;7.244;2022-07-29T12:11:33;5.62;;;3.20;;
9342;SDS011;4710;51.382;7.244;2022-07-29T12:17:07;4.70;;;3.22;;
9342;SDS011;4710;51.382;7.244;2022-07-29T12:19:48;3.95;;;3.17;;
9342;SDS011;4710;51.382;7.244;2022-07-29T12:22:30;4.30;;;3.10;;
9342;SDS011;4710;51.382;7.244;2022-07-29T12:25:11;5.30;;;2.90;;
9342;SDS011;4710;51.382;7.244;2022-07-29T12:27:57;6.30;;;3.40;;
9342;SDS011;4710;51.382;7.244;2022-07-29T12:30:39;8.80;;;3.40;;
9342;SDS011;4710;51.382;7.244;2022-07-29T12:33:22;6.00;;;3.25;;
9342;SDS011;4710;51.382;7.244;2022-07-29T12:36:01;5.72;;;3.70;;
9342;SDS011;4710;51.382;7.244;2022-07-29T12:38:41;4.50;;;3.33;;
9342;SDS011;4710;51.382;7.244;2022-07-29T12:41:19;4.03;;;3.70;;
9342;SDS011;4710;51.382;7.244;2022-07-29T12:43:56;4.10;;;3.70;;
9342;SDS011;4710;51.382;7.244;2022-07-29T12:46:37;5.90;;;3.37;;
9342;SDS011;4710;51.382;7.244;2022-07-29T12:49:21;3.53;;;3.33;;
9342;SDS011;4710;51.382;7.244;2022-07-29T12:52:01;4.25;;;3.33;;
9342;SDS011;4710;51.382;7.244;2022-07-29T12:54:46;6.75;;;3.50;;
9342;SDS011;4710;51.382;7.244;2022-07-29T12:57:24;6.15;;;3.80;;
9342;SDS011;4710;51.382;7.244;2022-07-29T13:00:06;7.50;;;3.95;;
9342;SDS011;4710;51.382;7.244;2022-07-29T13:02:53;4.25;;;3.60;;
9342;SDS011;4710;51.382;7.244;2022-07-29T13:08:21;7.07;;;3.92;;
9342;SDS011;4710;51.382;7.244;2022-07-29T13:10:59;4.72;;;3.58;;
9342;SDS011;4710;51.382;7.244;2022-07-29T13:16:30;4.62;;;3.40;;
9342;SDS011;4710;51.382;7.244;2022-07-29T13:19:08;4.55;;;3.20;;
9342;SDS011;4710;51.382;7.244;2022-07-29T13:21:54;6.60;;;3.70;;
9342;SDS011;4710;51.382;7.244;2022-07-29T13:24:44;3.40;;;3.10;;
9342;SDS011;4710;51.382;7.244;2022-07-29T13:27:23;6.97;;;3.53;;
9342;SDS011;4710;51.382;7.244;2022-07-29T13:30:05;5.90;;;3.10;;
9342;SDS011;4710;51.382;7.244;2022-07-29T13:32:46;6.20;;;3.50;;
9342;SDS011;4710;51.382;7.244;2022-07-29T13:35:27;4.62;;;3.08;;
9342;SDS011;4710;51.382;7.244;2022-07-29T13:38:08;4.57;;;3.20;;
9342;SDS011;4710;51.382;7.244;2022-07-29T13:40:52;6.20;;;3.10;;
9342;SDS011;4710;51.382;7.244;2022-07-29T13:43:29;7.87;;;3.33;;
9342;SDS011;4710;51.382;7.244;2022-07-29T13:46:10;5.62;;;3.80;;
9342;SDS011;4710;51.382;7.244;2022-07-29T13:48:48;6.32;;;3.12;;
9342;SDS011;4710;51.382;7.244;2022-07-29T13:51:25;4.40;;;2.78;;
9342;SDS011;4710;51.382;7.244;2022-07-29T13:54:02;5.85;;;2.92;;
9342;SDS011;4710;51.382;7.244;2022-07-29T13:56:39;5.43;;;3.20;;
9342;SDS011;4710;51.382;7.244;2022-07-29T13:59:16;3.22;;;2.92;;
9342;SDS011;4710;51.382;7.244;2022-07-29T14:02:00;5.47;;;2.80;;
9342;SDS011;4710;51.382;7.244;2022-07-29T14:04:37;3.92;;;3.28;;
9342;SDS011;4710;51.382;7.244;2022-07-29T14:07:18;6.05;;;3.30;;
9342;SDS011;4710;51.382;7.244;2022-07-29T14:10:01;4.53;;;2.85;;
9342;SDS011;4710;51.382;7.244;2022-07-29T14:12:46;3.22;;;2.92;;
9342;SDS011;4710;51.382;7.244;2022-07-29T14:15:26;5.53;;;3.40;;
9342;SDS011;4710;51.382;7.244;2022-07-29T14:18:03;6.35;;;3.33;;
9342;SDS011;4710;51.382;7.244;2022-07-29T14:20:41;5.68;;;3.67;;
9342;SDS011;4710;51.382;7.244;2022-07-29T14:23:40;3.83;;;3.50;;
9342;SDS011;4710;51.382;7.244;2022-07-29T14:26:23;4.32;;;3.83;;
9342;SDS011;4710;51.382;7.244;2022-07-29T14:29:04;5.87;;;3.53;;
9342;SDS011;4710;51.382;7.244;2022-07-29T14:31:41;4.40;;;3.20;;
9342;SDS011;4710;51.382;7.244;2022-07-29T14:34:24;4.65;;;3.45;;
9342;SDS011;4710;51.382;7.244;2022-07-29T14:37:01;5.55;;;3.83;;
9342;SDS011;4710;51.382;7.244;2022-07-29T14:39:41;4.18;;;3.55;;
9342;SDS011;4710;51.382;7.244;2022-07-29T14:42:18;3.80;;;3.28;;
9342;SDS011;4710;51.382;7.244;2022-07-29T14:44:56;4.40;;;3.33;;
9342;SDS011;4710;51.382;7.244;2022-07-29T14:47:36;3.83;;;2.90;;
9342;SDS011;4710;51.382;7.244;2022-07-29T14:50:13;5.90;;;3.20;;
9342;SDS011;4710;51.382;7.244;2022-07-29T14:52:50;4.72;;;2.90;;
9342;SDS011;4710;51.382;7.244;2022-07-29T14:55:31;3.78;;;2.85;;
9342;SDS011;4710;51.382;7.244;2022-07-29T14:58:09;3.62;;;2.80;;
9342;SDS011;4710;51.382;7.244;2022-07-29T15:00:51;6.45;;;2.72;;
9342;SDS011;4710;51.382;7.244;2022-07-29T15:03:32;3.05;;;2.75;;
9342;SDS011;4710;51.382;7.244;2022-07-29T15:06:12;6.15;;;2.85;;
9342;SDS011;4710;51.382;7.244;2022-07-29T15:08:49;6.05;;;2.85;;
9342;SDS011;4710;51.382;7.244;2022-07-29T15:11:27;6.03;;;3.15;;
9342;SDS011;4710;51.382;7.244;2022-07-29T15:14:08;3.83;;;2.97;;
9342;SDS011;4710;51.382;7.244;2022-07-29T15:16:45;5.80;;;2.65;;
9342;SDS011;4710;51.382;7.244;2022-07-29T15:19:25;5.93;;;2.90;;
9342;SDS011;4710;51.382;7.244;2022-07-29T15:22:03;4.62;;;3.10;;
9342;SDS011;4710;51.382;7.244;2022-07-29T15:24:40;3.85;;;3.10;;
9342;SDS011;4710;51.382;7.244;2022-07-29T15:27:22;3.42;;;3.12;;
9342;SDS011;4710;51.382;7.244;2022-07-29T15:30:02;3.75;;;2.53;;
9342;SDS011;4710;51.382;7.244;2022-07-29T15:32:43;3.67;;;2.58;;
9342;SDS011;4710;51.382;7.244;2022-07-29T15:35:24;3.72;;;2.83;;
9342;SDS011;4710;51.382;7.244;2022-07-29T15:38:01;2.62;;;2.33;;
9342;SDS011;4710;51.382;7.244;2022-07-29T15:40:43;4.10;;;2.90;;
9342;SDS011;4710;51.382;7.244;2022-07-29T15:43:27;4.00;;;3.10;;
9342;SDS011;4710;51.382;7.244;2022-07-29T15:46:04;49.00;;;11.12;;
9342;SDS011;4710;51.382;7.244;2022-07-29T15:48:47;3.30;;;3.00;;
9342;SDS011;4710;51.382;7.244;2022-07-29T15:51:24;4.05;;;2.97;;
9342;SDS011;4710;51.382;7.244;2022-07-29T15:54:02;5.15;;;3.17;;
9342;SDS011;4710;51.382;7.244;2022-07-29T15:56:41;4.95;;;3.00;;
9342;SDS011;4710;51.382;7.244;2022-07-29T15:59:24;3.33;;;3.03;;
9342;SDS011;4710;51.382;7.244;2022-07-29T16:02:08;3.30;;;2.60;;
9342;SDS011;4710;51.382;7.244;2022-07-29T16:04:49;15.30;;;3.78;;
9342;SDS011;4710;51.382;7.244;2022-07-29T16:07:27;6.18;;;2.87;;
9342;SDS011;4710;51.382;7.244;2022-07-29T16:10:07;7.90;;;3.08;;
9342;SDS011;4710;51.382;7.244;2022-07-29T16:12:45;10.90;;;2.90;;
9342;SDS011;4710;51.382;7.244;2022-07-29T16:15:25;6.07;;;3.28;;
9342;SDS011;4710;51.382;7.244;2022-07-29T16:18:02;3.00;;;2.80;;
9342;SDS011;4710;51.382;7.244;2022-07-29T16:20:40;3.53;;;2.80;;
9342;SDS011;4710;51.382;7.244;2022-07-29T16:23:21;3.65;;;2.95;;
9342;SDS011;4710;51.382;7.244;2022-07-29T16:26:02;9.90;;;3.30;;
9342;SDS011;4710;51.382;7.244;2022-07-29T16:28:44;2.95;;;2.75;;
9342;SDS011;4710;51.382;7.244;2022-07-29T16:31:22;3.40;;;3.10;;
9342;SDS011;4710;51.382;7.244;2022-07-29T16:34:02;4.30;;;3.53;;
9342;SDS011;4710;51.382;7.244;2022-07-29T16:36:50;5.82;;;3.33;;
9342;SDS011;4710;51.382;7.244;2022-07-29T16:39:27;5.62;;;3.83;;
9342;SDS011;4710;51.382;7.244;2022-07-29T16:42:07;5.55;;;3.37;;
9342;SDS011;4710;51.382;7.244;2022-07-29T16:44:45;5.80;;;4.32;;
9342;SDS011;4710;51.382;7.244;2022-07-29T16:47:22;5.90;;;4.12;;
9342;SDS011;4710;51.382;7.244;2022-07-29T16:49:59;5.85;;;3.50;;
9342;SDS011;4710;51.382;7.244;2022-07-29T16:52:40;6.55;;;3.85;;
9342;SDS011;4710;51.382;7.244;2022-07-29T16:55:17;5.28;;;3.50;;
9342;SDS011;4710;51.382;7.244;2022-07-29T16:57:58;7.43;;;3.80;;
9342;SDS011;4710;51.382;7.244;2022-07-29T17:00:36;7.05;;;3.42;;
9342;SDS011;4710;51.382;7.244;2022-07-29T17:03:13;4.40;;;3.33;;
9342;SDS011;4710;51.382;7.244;2022-07-29T17:05:50;5.28;;;3.25;;
9342;SDS011;4710;51.382;7.244;2022-07-29T17:08:37;5.05;;;3.53;;
9342;SDS011;4710;51.382;7.244;2022-07-29T17:11:20;6.22;;;3.12;;
9342;SDS011;4710;51.382;7.244;2022-07-29T17:13:57;5.68;;;3.80;;
9342;SDS011;4710;51.382;7.244;2022-07-29T17:16:35;3.62;;;3.30;;
9342;SDS011;4710;51.382;7.244;2022-07-29T17:19:12;5.37;;;3.08;;
9342;SDS011;4710;51.382;7.244;2022-07-29T17:21:52;5.37;;;3.58;;
9342;SDS011;4710;51.382;7.244;2022-07-29T17:24:30;3.83;;;3.47;;
9342;SDS011;4710;51.382;7.244;2022-07-29T17:27:10;5.20;;;3.80;;
9342;SDS011;4710;51.382;7.244;2022-07-29T17:29:47;5.93;;;3.80;;